Check out our new PWSWeather beta!
PWSweather.com
Personal Weather Stations
Station Observations
SD92115WX
El Cerrito Stoneybluff, San Diego, CA 92115

El Cerrito StoneybluffSan Diego, CA 92115

Lat: 32.754096, Lon: -117.066705

Elevation: 420

Station Type: Davis Vantage Vue

http://stoneybluff.com

High Low Average
Temperature 63.7°F17.6°C 56.3°F13.5°C 59.3°F15.2°C
Dew Point 58.6°F14.8°C 53.8°F12.1°C 55.1°F12.8°C
Winds 6.0 mph 9.7 kmh Calm Calm 2.0 mph SW3.2 kmh SW
Wind Gusts 9.6 mph15.4 kmh -- 4.0 mph6.4 kmh
Humidity 95% 72% 86%
Pressure 29.86 in1011.2 mb 29.71 in1006.1 mb -
Precipitation 0.03 in0.8 mm - -
Hour Temp Dew Point Humidity Winds Wind Gusts Pressure Precip Precip Rate Daily Precip Total
12:02 AM 57.9°F14.4°C 54.7°F12.6°C 89% Calm Calm -- 29.86 in1011.2 mb 0.00 in0.0 mm 0.00 in0.0 mm 0.00 in0.0 mm
12:07 AM 57.9°F14.4°C 54.7°F12.6°C 89% Calm Calm -- 29.86 in1011.2 mb 0.00 in0.0 mm 0.00 in0.0 mm 0.00 in0.0 mm
12:12 AM 57.9°F14.4°C 55.0°F12.8°C 90% Calm Calm -- 29.85 in1010.8 mb 0.00 in0.0 mm 0.00 in0.0 mm 0.00 in0.0 mm
12:17 AM 57.9°F14.4°C 55.0°F12.8°C 90% Calm Calm -- 29.85 in1010.8 mb 0.00 in0.0 mm 0.00 in0.0 mm 0.00 in0.0 mm
12:22 AM 57.7°F14.3°C 54.9°F12.7°C 90% Calm Calm -- 29.85 in1010.8 mb 0.00 in0.0 mm 0.00 in0.0 mm 0.00 in0.0 mm
12:27 AM 57.7°F14.3°C 54.9°F12.7°C 90% Calm Calm -- 29.85 in1010.8 mb 0.00 in0.0 mm 0.00 in0.0 mm 0.00 in0.0 mm
12:32 AM 57.7°F14.3°C 54.9°F12.7°C 90% Calm Calm -- 29.85 in1010.8 mb 0.00 in0.0 mm 0.00 in0.0 mm 0.00 in0.0 mm
12:37 AM 57.6°F14.2°C 54.7°F12.6°C 90% Calm Calm -- 29.85 in1010.8 mb 0.00 in0.0 mm 0.00 in0.0 mm 0.00 in0.0 mm
12:42 AM 57.6°F14.2°C 54.7°F12.6°C 90% Calm Calm -- 29.85 in1010.8 mb 0.00 in0.0 mm 0.00 in0.0 mm 0.00 in0.0 mm
12:47 AM 57.6°F14.2°C 54.7°F12.6°C 90% Calm Calm -- 29.84 in1010.5 mb 0.00 in0.0 mm 0.00 in0.0 mm 0.00 in0.0 mm
12:52 AM 57.6°F14.2°C 54.7°F12.6°C 90% Calm Calm -- 29.84 in1010.5 mb 0.00 in0.0 mm 0.00 in0.0 mm 0.00 in0.0 mm
12:57 AM 57.6°F14.2°C 54.7°F12.6°C 90% Calm Calm -- 29.84 in1010.5 mb 0.00 in0.0 mm 0.00 in0.0 mm 0.00 in0.0 mm
01:02 AM 57.6°F14.2°C 54.7°F12.6°C 90% Calm Calm -- 29.84 in1010.5 mb 0.00 in0.0 mm 0.00 in0.0 mm 0.00 in0.0 mm
01:07 AM 57.6°F14.2°C 55.0°F12.8°C 91% Calm Calm -- 29.84 in1010.5 mb 0.00 in0.0 mm 0.00 in0.0 mm 0.00 in0.0 mm
01:12 AM 57.6°F14.2°C 55.0°F12.8°C 91% Calm Calm -- 29.83 in1010.2 mb 0.00 in0.0 mm 0.00 in0.0 mm 0.00 in0.0 mm
01:17 AM 57.6°F14.2°C 55.0°F12.8°C 91% Calm Calm -- 29.83 in1010.2 mb 0.00 in0.0 mm 0.00 in0.0 mm 0.00 in0.0 mm
01:22 AM 57.6°F14.2°C 55.0°F12.8°C 91% Calm Calm -- 29.83 in1010.2 mb 0.00 in0.0 mm 0.00 in0.0 mm 0.00 in0.0 mm
01:27 AM 57.6°F14.2°C 55.0°F12.8°C 91% Calm Calm 1.1 mph1.8 kmh 29.83 in1010.2 mb 0.00 in0.0 mm 0.00 in0.0 mm 0.00 in0.0 mm
01:32 AM 57.6°F14.2°C 55.0°F12.8°C 91% Calm Calm 1.1 mph1.8 kmh 29.83 in1010.2 mb 0.00 in0.0 mm 0.00 in0.0 mm 0.00 in0.0 mm
01:37 AM 57.6°F14.2°C 55.0°F12.8°C 91% Calm Calm -- 29.84 in1010.5 mb 0.00 in0.0 mm 0.00 in0.0 mm 0.00 in0.0 mm
01:42 AM 57.6°F14.2°C 55.0°F12.8°C 91% Calm Calm 1.1 mph1.8 kmh 29.83 in1010.2 mb 0.00 in0.0 mm 0.00 in0.0 mm 0.00 in0.0 mm
01:47 AM 57.6°F14.2°C 55.0°F12.8°C 91% Calm Calm -- 29.83 in1010.2 mb 0.00 in0.0 mm 0.00 in0.0 mm 0.00 in0.0 mm
01:52 AM 57.6°F14.2°C 55.0°F12.8°C 91% Calm Calm -- 29.83 in1010.2 mb 0.00 in0.0 mm 0.00 in0.0 mm 0.00 in0.0 mm
01:57 AM 57.6°F14.2°C 55.0°F12.8°C 91% 0.4 mph SW0.6 kmh SW 2.0 mph3.2 kmh 29.83 in1010.2 mb 0.00 in0.0 mm 0.00 in0.0 mm 0.00 in0.0 mm
02:02 AM 57.6°F14.2°C 55.0°F12.8°C 91% Calm Calm 2.0 mph3.2 kmh 29.83 in1010.2 mb 0.00 in0.0 mm 0.00 in0.0 mm 0.00 in0.0 mm
02:07 AM 57.4°F14.1°C 55.0°F12.8°C 92% Calm Calm -- 29.83 in1010.2 mb 0.00 in0.0 mm 0.00 in0.0 mm 0.00 in0.0 mm
02:12 AM 57.4°F14.1°C 55.0°F12.8°C 92% Calm Calm -- 29.83 in1010.2 mb 0.00 in0.0 mm 0.00 in0.0 mm 0.00 in0.0 mm
02:17 AM 57.4°F14.1°C 55.0°F12.8°C 92% Calm Calm -- 29.83 in1010.2 mb 0.00 in0.0 mm 0.00 in0.0 mm 0.00 in0.0 mm
02:22 AM 57.4°F14.1°C 55.0°F12.8°C 92% Calm Calm -- 29.83 in1010.2 mb 0.00 in0.0 mm 0.00 in0.0 mm 0.00 in0.0 mm
02:27 AM 57.4°F14.1°C 55.0°F12.8°C 92% Calm Calm -- 29.83 in1010.2 mb 0.00 in0.0 mm 0.00 in0.0 mm 0.00 in0.0 mm
02:32 AM 57.2°F14.0°C 54.9°F12.7°C 92% Calm Calm -- 29.82 in1009.8 mb 0.00 in0.0 mm 0.00 in0.0 mm 0.00 in0.0 mm
02:37 AM 57.4°F14.1°C 55.4°F13.0°C 93% Calm Calm -- 29.82 in1009.8 mb 0.00 in0.0 mm 0.00 in0.0 mm 0.00 in0.0 mm
02:42 AM 57.2°F14.0°C 55.2°F12.9°C 93% Calm Calm -- 29.82 in1009.8 mb 0.00 in0.0 mm 0.00 in0.0 mm 0.00 in0.0 mm
02:47 AM 57.0°F13.9°C 55.0°F12.8°C 93% Calm Calm -- 29.82 in1009.8 mb 0.00 in0.0 mm 0.00 in0.0 mm 0.00 in0.0 mm
02:52 AM 57.0°F13.9°C 55.0°F12.8°C 93% Calm Calm -- 29.82 in1009.8 mb 0.00 in0.0 mm 0.00 in0.0 mm 0.00 in0.0 mm
02:57 AM 57.0°F13.9°C 55.0°F12.8°C 93% Calm Calm -- 29.82 in1009.8 mb 0.00 in0.0 mm 0.00 in0.0 mm 0.00 in0.0 mm
03:02 AM 57.0°F13.9°C 55.0°F12.8°C 93% Calm Calm -- 29.82 in1009.8 mb 0.00 in0.0 mm 0.00 in0.0 mm 0.00 in0.0 mm
03:07 AM 57.0°F13.9°C 55.0°F12.8°C 93% Calm Calm -- 29.82 in1009.8 mb 0.00 in0.0 mm 0.00 in0.0 mm 0.00 in0.0 mm
03:12 AM 57.2°F14.0°C 55.2°F12.9°C 93% 0.2 mph NW0.3 kmh NW 2.0 mph3.2 kmh 29.82 in1009.8 mb 0.00 in0.0 mm 0.00 in0.0 mm 0.00 in0.0 mm
03:17 AM 57.0°F13.9°C 55.0°F12.8°C 93% 0.4 mph W0.6 kmh W 2.0 mph3.2 kmh 29.82 in1009.8 mb 0.00 in0.0 mm 0.00 in0.0 mm 0.00 in0.0 mm
03:22 AM 57.0°F13.9°C 55.0°F12.8°C 93% 0.9 mph SW1.4 kmh SW 2.0 mph3.2 kmh 29.82 in1009.8 mb 0.00 in0.0 mm 0.00 in0.0 mm 0.00 in0.0 mm
03:27 AM 57.0°F13.9°C 55.0°F12.8°C 93% 0.2 mph W0.3 kmh W 1.1 mph1.8 kmh 29.82 in1009.8 mb 0.00 in0.0 mm 0.00 in0.0 mm 0.00 in0.0 mm
03:32 AM 56.8°F13.8°C 54.9°F12.7°C 93% 0.7 mph NW1.1 kmh NW 1.1 mph1.8 kmh 29.81 in1009.5 mb 0.00 in0.0 mm 0.00 in0.0 mm 0.00 in0.0 mm
03:37 AM 56.7°F13.7°C 54.7°F12.6°C 93% Calm Calm 2.0 mph3.2 kmh 29.81 in1009.5 mb 0.00 in0.0 mm 0.00 in0.0 mm 0.00 in0.0 mm
03:42 AM 56.7°F13.7°C 55.0°F12.8°C 94% Calm Calm 1.1 mph1.8 kmh 29.82 in1009.8 mb 0.00 in0.0 mm 0.00 in0.0 mm 0.00 in0.0 mm
03:47 AM 56.7°F13.7°C 55.0°F12.8°C 94% 0.4 mph NNW0.6 kmh NNW 1.1 mph1.8 kmh 29.81 in1009.5 mb 0.00 in0.0 mm 0.00 in0.0 mm 0.00 in0.0 mm
03:52 AM 56.7°F13.7°C 55.0°F12.8°C 94% Calm Calm 1.1 mph1.8 kmh 29.81 in1009.5 mb 0.00 in0.0 mm 0.00 in0.0 mm 0.00 in0.0 mm
03:57 AM 56.5°F13.6°C 54.9°F12.7°C 94% 0.2 mph NW0.3 kmh NW 2.0 mph3.2 kmh 29.81 in1009.5 mb 0.00 in0.0 mm 0.00 in0.0 mm 0.01 in0.3 mm
04:02 AM 56.5°F13.6°C 54.9°F12.7°C 94% Calm Calm -- 29.81 in1009.5 mb 0.01 in0.3 mm 0.01 in0.3 mm 0.01 in0.3 mm
04:07 AM 56.5°F13.6°C 54.9°F12.7°C 94% Calm Calm -- 29.81 in1009.5 mb 0.01 in0.3 mm 0.00 in0.0 mm 0.01 in0.3 mm
04:12 AM 56.5°F13.6°C 54.9°F12.7°C 94% Calm Calm 1.1 mph1.8 kmh 29.81 in1009.5 mb 0.01 in0.3 mm 0.00 in0.0 mm 0.01 in0.3 mm
04:17 AM 56.3°F13.5°C 54.7°F12.6°C 94% Calm Calm 1.1 mph1.8 kmh 29.81 in1009.5 mb 0.01 in0.3 mm 0.00 in0.0 mm 0.01 in0.3 mm
04:22 AM 56.3°F13.5°C 54.7°F12.6°C 94% Calm Calm -- 29.81 in1009.5 mb 0.01 in0.3 mm 0.00 in0.0 mm 0.01 in0.3 mm
04:27 AM 56.5°F13.6°C 54.9°F12.7°C 94% Calm Calm -- 29.81 in1009.5 mb 0.01 in0.3 mm 0.00 in0.0 mm 0.01 in0.3 mm
04:32 AM 56.5°F13.6°C 54.9°F12.7°C 94% Calm Calm -- 29.81 in1009.5 mb 0.01 in0.3 mm 0.00 in0.0 mm 0.01 in0.3 mm
04:37 AM 56.5°F13.6°C 54.9°F12.7°C 94% Calm Calm -- 29.81 in1009.5 mb 0.01 in0.3 mm 0.00 in0.0 mm 0.01 in0.3 mm
04:42 AM 56.3°F13.5°C 54.7°F12.6°C 94% Calm Calm -- 29.81 in1009.5 mb 0.01 in0.3 mm 0.00 in0.0 mm 0.01 in0.3 mm
04:47 AM 56.3°F13.5°C 54.7°F12.6°C 94% Calm Calm -- 29.80 in1009.1 mb 0.02 in0.5 mm 0.12 in3.0 mm 0.02 in0.5 mm
04:52 AM 56.3°F13.5°C 54.7°F12.6°C 94% Calm Calm -- 29.81 in1009.5 mb 0.02 in0.5 mm 0.00 in0.0 mm 0.02 in0.5 mm
04:57 AM 56.3°F13.5°C 54.7°F12.6°C 94% Calm Calm -- 29.80 in1009.1 mb 0.02 in0.5 mm 0.00 in0.0 mm 0.02 in0.5 mm
05:02 AM 56.3°F13.5°C 54.7°F12.6°C 94% Calm Calm -- 29.81 in1009.5 mb 0.01 in0.3 mm 0.00 in0.0 mm 0.02 in0.5 mm
05:07 AM 56.5°F13.6°C 55.0°F12.8°C 95% Calm Calm -- 29.80 in1009.1 mb 0.01 in0.3 mm 0.00 in0.0 mm 0.02 in0.5 mm
05:12 AM 56.5°F13.6°C 55.0°F12.8°C 95% Calm Calm -- 29.81 in1009.5 mb 0.01 in0.3 mm 0.00 in0.0 mm 0.02 in0.5 mm
05:17 AM 56.5°F13.6°C 55.0°F12.8°C 95% Calm Calm -- 29.80 in1009.1 mb 0.01 in0.3 mm 0.00 in0.0 mm 0.02 in0.5 mm
05:22 AM 56.5°F13.6°C 55.0°F12.8°C 95% Calm Calm -- 29.80 in1009.1 mb 0.01 in0.3 mm 0.00 in0.0 mm 0.02 in0.5 mm
05:27 AM 56.5°F13.6°C 55.0°F12.8°C 95% Calm Calm -- 29.81 in1009.5 mb 0.01 in0.3 mm 0.00 in0.0 mm 0.02 in0.5 mm
05:32 AM 56.5°F13.6°C 55.0°F12.8°C 95% Calm Calm -- 29.81 in1009.5 mb 0.01 in0.3 mm 0.00 in0.0 mm 0.02 in0.5 mm
05:37 AM 56.5°F13.6°C 55.0°F12.8°C 95% Calm Calm -- 29.81 in1009.5 mb 0.01 in0.3 mm 0.00 in0.0 mm 0.02 in0.5 mm
05:42 AM 56.7°F13.7°C 55.2°F12.9°C 95% Calm Calm -- 29.81 in1009.5 mb 0.01 in0.3 mm 0.00 in0.0 mm 0.02 in0.5 mm
05:47 AM 56.7°F13.7°C 55.2°F12.9°C 95% Calm Calm -- 29.81 in1009.5 mb 0.00 in0.0 mm 0.00 in0.0 mm 0.02 in0.5 mm
05:52 AM 56.8°F13.8°C 55.4°F13.0°C 95% Calm Calm -- 29.81 in1009.5 mb 0.00 in0.0 mm 0.00 in0.0 mm 0.02 in0.5 mm
05:57 AM 56.8°F13.8°C 55.4°F13.0°C 95% Calm Calm -- 29.81 in1009.5 mb 0.00 in0.0 mm 0.00 in0.0 mm 0.02 in0.5 mm
06:02 AM 57.0°F13.9°C 55.6°F13.1°C 95% Calm Calm -- 29.81 in1009.5 mb 0.00 in0.0 mm 0.00 in0.0 mm 0.02 in0.5 mm
06:07 AM 57.0°F13.9°C 55.6°F13.1°C 95% Calm Calm -- 29.81 in1009.5 mb 0.00 in0.0 mm 0.00 in0.0 mm 0.02 in0.5 mm
06:12 AM 57.2°F14.0°C 55.8°F13.2°C 95% Calm Calm -- 29.81 in1009.5 mb 0.00 in0.0 mm 0.00 in0.0 mm 0.02 in0.5 mm
06:17 AM 57.4°F14.1°C 55.9°F13.3°C 95% Calm Calm -- 29.81 in1009.5 mb 0.00 in0.0 mm 0.00 in0.0 mm 0.02 in0.5 mm
06:22 AM 57.4°F14.1°C 55.9°F13.3°C 95% Calm Calm -- 29.81 in1009.5 mb 0.00 in0.0 mm 0.00 in0.0 mm 0.02 in0.5 mm
06:27 AM 57.4°F14.1°C 55.9°F13.3°C 95% Calm Calm -- 29.81 in1009.5 mb 0.00 in0.0 mm 0.00 in0.0 mm 0.02 in0.5 mm
06:32 AM 57.4°F14.1°C 55.9°F13.3°C 95% Calm Calm -- 29.82 in1009.8 mb 0.00 in0.0 mm 0.00 in0.0 mm 0.02 in0.5 mm
06:37 AM 57.6°F14.2°C 56.1°F13.4°C 95% Calm Calm -- 29.82 in1009.8 mb 0.00 in0.0 mm 0.00 in0.0 mm 0.02 in0.5 mm
06:42 AM 57.4°F14.1°C 55.9°F13.3°C 95% Calm Calm -- 29.81 in1009.5 mb 0.00 in0.0 mm 0.00 in0.0 mm 0.02 in0.5 mm
06:47 AM 57.4°F14.1°C 55.9°F13.3°C 95% Calm Calm -- 29.81 in1009.5 mb 0.00 in0.0 mm 0.00 in0.0 mm 0.02 in0.5 mm
06:52 AM 57.6°F14.2°C 56.1°F13.4°C 95% 0.4 mph SW0.6 kmh SW 2.0 mph3.2 kmh 29.81 in1009.5 mb 0.00 in0.0 mm 0.00 in0.0 mm 0.02 in0.5 mm
06:57 AM 57.7°F14.3°C 56.3°F13.5°C 95% 0.2 mph SSW0.3 kmh SSW 2.0 mph3.2 kmh 29.81 in1009.5 mb 0.00 in0.0 mm 0.00 in0.0 mm 0.02 in0.5 mm
07:02 AM 57.7°F14.3°C 56.3°F13.5°C 95% 1.3 mph SSW2.1 kmh SSW 2.0 mph3.2 kmh 29.81 in1009.5 mb 0.00 in0.0 mm 0.00 in0.0 mm 0.02 in0.5 mm
07:07 AM 57.6°F14.2°C 55.8°F13.2°C 94% 3.4 mph SW5.5 kmh SW 6.3 mph10.1 kmh 29.82 in1009.8 mb 0.00 in0.0 mm 0.00 in0.0 mm 0.02 in0.5 mm
07:12 AM 57.4°F14.1°C 55.6°F13.1°C 94% 2.0 mph SW3.2 kmh SW 6.3 mph10.1 kmh 29.81 in1009.5 mb 0.00 in0.0 mm 0.00 in0.0 mm 0.02 in0.5 mm
07:17 AM 57.2°F14.0°C 55.4°F13.0°C 94% 1.3 mph SSW2.1 kmh SSW 5.4 mph8.7 kmh 29.81 in1009.5 mb 0.00 in0.0 mm 0.00 in0.0 mm 0.02 in0.5 mm
07:22 AM 57.0°F13.9°C 55.2°F12.9°C 94% 1.6 mph SSW2.6 kmh SSW 4.3 mph6.9 kmh 29.81 in1009.5 mb 0.00 in0.0 mm 0.00 in0.0 mm 0.02 in0.5 mm
07:27 AM 57.0°F13.9°C 55.2°F12.9°C 94% 2.9 mph SSW4.7 kmh SSW 6.3 mph10.1 kmh 29.81 in1009.5 mb 0.00 in0.0 mm 0.00 in0.0 mm 0.02 in0.5 mm
07:32 AM 57.0°F13.9°C 55.6°F13.1°C 95% 1.8 mph WSW2.9 kmh WSW 5.4 mph8.7 kmh 29.81 in1009.5 mb 0.00 in0.0 mm 0.00 in0.0 mm 0.02 in0.5 mm
07:37 AM 56.8°F13.8°C 55.2°F12.9°C 94% 2.5 mph SSW4.0 kmh SSW 6.3 mph10.1 kmh 29.81 in1009.5 mb 0.00 in0.0 mm 0.00 in0.0 mm 0.02 in0.5 mm
07:42 AM 56.8°F13.8°C 55.4°F13.0°C 95% 1.8 mph WSW2.9 kmh WSW 4.3 mph6.9 kmh 29.81 in1009.5 mb 0.00 in0.0 mm 0.00 in0.0 mm 0.02 in0.5 mm
07:47 AM 57.0°F13.9°C 55.6°F13.1°C 95% 2.9 mph SW4.7 kmh SW 5.4 mph8.7 kmh 29.81 in1009.5 mb 0.00 in0.0 mm 0.00 in0.0 mm 0.02 in0.5 mm
07:52 AM 57.0°F13.9°C 55.6°F13.1°C 95% 2.0 mph SW3.2 kmh SW 5.4 mph8.7 kmh 29.81 in1009.5 mb 0.00 in0.0 mm 0.00 in0.0 mm 0.02 in0.5 mm
07:57 AM 57.0°F13.9°C 55.6°F13.1°C 95% 3.4 mph WSW5.5 kmh WSW 5.4 mph8.7 kmh 29.81 in1009.5 mb 0.00 in0.0 mm 0.00 in0.0 mm 0.02 in0.5 mm
08:02 AM 57.0°F13.9°C 55.6°F13.1°C 95% 0.9 mph SW1.4 kmh SW 5.4 mph8.7 kmh 29.81 in1009.5 mb 0.00 in0.0 mm 0.00 in0.0 mm 0.03 in0.8 mm
08:07 AM 57.0°F13.9°C 55.6°F13.1°C 95% 2.5 mph WSW4.0 kmh WSW 5.4 mph8.7 kmh 29.81 in1009.5 mb 0.01 in0.3 mm 0.12 in3.0 mm 0.03 in0.8 mm
08:12 AM 57.0°F13.9°C 55.6°F13.1°C 95% 2.7 mph SW4.3 kmh SW 4.3 mph6.9 kmh 29.81 in1009.5 mb 0.01 in0.3 mm 0.00 in0.0 mm 0.03 in0.8 mm
08:17 AM 57.2°F14.0°C 55.8°F13.2°C 95% 2.5 mph WSW4.0 kmh WSW 5.4 mph8.7 kmh 29.81 in1009.5 mb 0.01 in0.3 mm 0.00 in0.0 mm 0.03 in0.8 mm
08:22 AM 57.2°F14.0°C 55.8°F13.2°C 95% 2.9 mph SW4.7 kmh SW 4.3 mph6.9 kmh 29.81 in1009.5 mb 0.01 in0.3 mm 0.00 in0.0 mm 0.03 in0.8 mm
08:27 AM 57.4°F14.1°C 55.9°F13.3°C 95% 0.4 mph SW0.6 kmh SW 4.3 mph6.9 kmh 29.81 in1009.5 mb 0.01 in0.3 mm 0.00 in0.0 mm 0.03 in0.8 mm
08:32 AM 57.7°F14.3°C 56.3°F13.5°C 95% Calm Calm 2.0 mph3.2 kmh 29.81 in1009.5 mb 0.01 in0.3 mm 0.00 in0.0 mm 0.03 in0.8 mm
08:37 AM 58.3°F14.6°C 56.8°F13.8°C 95% 0.7 mph SSE1.1 kmh SSE 4.3 mph6.9 kmh 29.81 in1009.5 mb 0.01 in0.3 mm 0.00 in0.0 mm 0.03 in0.8 mm
08:42 AM 58.6°F14.8°C 57.2°F14.0°C 95% 0.4 mph NW0.6 kmh NW 2.0 mph3.2 kmh 29.81 in1009.5 mb 0.01 in0.3 mm 0.00 in0.0 mm 0.03 in0.8 mm
08:47 AM 59.0°F15.0°C 57.6°F14.2°C 95% Calm Calm 1.1 mph1.8 kmh 29.80 in1009.1 mb 0.01 in0.3 mm 0.00 in0.0 mm 0.03 in0.8 mm
08:52 AM 59.0°F15.0°C 57.6°F14.2°C 95% Calm Calm 2.0 mph3.2 kmh 29.80 in1009.1 mb 0.01 in0.3 mm 0.00 in0.0 mm 0.03 in0.8 mm
08:57 AM 59.4°F15.2°C 57.9°F14.4°C 95% 0.9 mph SW1.4 kmh SW 4.3 mph6.9 kmh 29.80 in1009.1 mb 0.01 in0.3 mm 0.00 in0.0 mm 0.03 in0.8 mm
09:02 AM 59.7°F15.4°C 57.9°F14.4°C 94% 1.1 mph SSE1.8 kmh SSE 4.3 mph6.9 kmh 29.81 in1009.5 mb 0.01 in0.3 mm 0.00 in0.0 mm 0.03 in0.8 mm
09:07 AM 59.9°F15.5°C 57.9°F14.4°C 93% 1.6 mph S2.6 kmh S 4.3 mph6.9 kmh 29.80 in1009.1 mb 0.00 in0.0 mm 0.00 in0.0 mm 0.03 in0.8 mm
09:12 AM 60.3°F15.7°C 58.3°F14.6°C 93% Calm Calm 3.1 mph5.0 kmh 29.80 in1009.1 mb 0.00 in0.0 mm 0.00 in0.0 mm 0.03 in0.8 mm
09:17 AM 61.0°F16.1°C 58.6°F14.8°C 92% 1.6 mph SSE2.6 kmh SSE 3.1 mph5.0 kmh 29.80 in1009.1 mb 0.00 in0.0 mm 0.00 in0.0 mm 0.03 in0.8 mm
09:22 AM 61.2°F16.2°C 58.3°F14.6°C 90% 1.1 mph SW1.8 kmh SW 3.1 mph5.0 kmh 29.80 in1009.1 mb 0.00 in0.0 mm 0.00 in0.0 mm 0.03 in0.8 mm
09:27 AM 61.2°F16.2°C 58.3°F14.6°C 90% Calm Calm 3.1 mph5.0 kmh 29.80 in1009.1 mb 0.00 in0.0 mm 0.00 in0.0 mm 0.03 in0.8 mm
09:32 AM 61.3°F16.3°C 57.7°F14.3°C 88% 1.8 mph SSW2.9 kmh SSW 4.3 mph6.9 kmh 29.80 in1009.1 mb 0.00 in0.0 mm 0.00 in0.0 mm 0.03 in0.8 mm
09:37 AM 61.5°F16.4°C 57.6°F14.2°C 87% 0.4 mph SSW0.6 kmh SSW 2.0 mph3.2 kmh 29.80 in1009.1 mb 0.00 in0.0 mm 0.00 in0.0 mm 0.03 in0.8 mm
09:42 AM 61.9°F16.6°C 57.6°F14.2°C 86% Calm Calm 1.1 mph1.8 kmh 29.80 in1009.1 mb 0.00 in0.0 mm 0.00 in0.0 mm 0.03 in0.8 mm
09:47 AM 61.9°F16.6°C 57.4°F14.1°C 85% 2.0 mph SE3.2 kmh SE 4.3 mph6.9 kmh 29.80 in1009.1 mb 0.00 in0.0 mm 0.00 in0.0 mm 0.03 in0.8 mm
09:52 AM 61.5°F16.4°C 57.0°F13.9°C 85% 0.4 mph S0.6 kmh S 3.1 mph5.0 kmh 29.80 in1009.1 mb 0.00 in0.0 mm 0.00 in0.0 mm 0.03 in0.8 mm
09:57 AM 61.3°F16.3°C 56.5°F13.6°C 84% 2.2 mph SW3.5 kmh SW 4.3 mph6.9 kmh 29.80 in1009.1 mb 0.00 in0.0 mm 0.00 in0.0 mm 0.03 in0.8 mm
10:02 AM 61.0°F16.1°C 56.5°F13.6°C 85% 2.0 mph SW3.2 kmh SW 5.4 mph8.7 kmh 29.80 in1009.1 mb 0.00 in0.0 mm 0.00 in0.0 mm 0.03 in0.8 mm
10:07 AM 60.6°F15.9°C 56.1°F13.4°C 85% 2.0 mph SW3.2 kmh SW 6.3 mph10.1 kmh 29.80 in1009.1 mb 0.00 in0.0 mm 0.00 in0.0 mm 0.03 in0.8 mm
10:12 AM 60.6°F15.9°C 56.5°F13.6°C 86% 2.2 mph WSW3.5 kmh WSW 5.4 mph8.7 kmh 29.80 in1009.1 mb 0.00 in0.0 mm 0.00 in0.0 mm 0.03 in0.8 mm
10:17 AM 60.6°F15.9°C 56.5°F13.6°C 86% 2.5 mph SW4.0 kmh SW 4.3 mph6.9 kmh 29.80 in1009.1 mb 0.00 in0.0 mm 0.00 in0.0 mm 0.03 in0.8 mm
10:22 AM 60.6°F15.9°C 56.5°F13.6°C 86% 2.0 mph WSW3.2 kmh WSW 6.3 mph10.1 kmh 29.79 in1008.8 mb 0.00 in0.0 mm 0.00 in0.0 mm 0.03 in0.8 mm
10:27 AM 60.4°F15.8°C 56.3°F13.5°C 86% 2.9 mph SW4.7 kmh SW 6.3 mph10.1 kmh 29.79 in1008.8 mb 0.00 in0.0 mm 0.00 in0.0 mm 0.03 in0.8 mm
10:32 AM 60.4°F15.8°C 56.5°F13.6°C 87% 2.0 mph WSW3.2 kmh WSW 5.4 mph8.7 kmh 29.80 in1009.1 mb 0.00 in0.0 mm 0.00 in0.0 mm 0.03 in0.8 mm
10:37 AM 60.3°F15.7°C 56.3°F13.5°C 87% 2.2 mph SW3.5 kmh SW 6.3 mph10.1 kmh 29.79 in1008.8 mb 0.00 in0.0 mm 0.00 in0.0 mm 0.03 in0.8 mm
10:42 AM 60.3°F15.7°C 56.3°F13.5°C 87% 3.4 mph SW5.5 kmh SW 6.3 mph10.1 kmh 29.79 in1008.8 mb 0.00 in0.0 mm 0.00 in0.0 mm 0.03 in0.8 mm
10:47 AM 60.3°F15.7°C 56.3°F13.5°C 87% 3.6 mph SSW5.8 kmh SSW 6.3 mph10.1 kmh 29.79 in1008.8 mb 0.00 in0.0 mm 0.00 in0.0 mm 0.03 in0.8 mm
10:52 AM 60.1°F15.6°C 56.1°F13.4°C 87% 5.1 mph SSW8.2 kmh SSW 9.6 mph15.4 kmh 29.79 in1008.8 mb 0.00 in0.0 mm 0.00 in0.0 mm 0.03 in0.8 mm
10:57 AM 60.1°F15.6°C 56.1°F13.4°C 87% 4.7 mph SSW7.6 kmh SSW 7.4 mph11.9 kmh 29.79 in1008.8 mb 0.00 in0.0 mm 0.00 in0.0 mm 0.03 in0.8 mm
11:02 AM 59.9°F15.5°C 55.9°F13.3°C 87% 4.3 mph SW6.9 kmh SW 8.5 mph13.7 kmh 29.79 in1008.8 mb 0.00 in0.0 mm 0.00 in0.0 mm 0.03 in0.8 mm
11:07 AM 59.9°F15.5°C 55.9°F13.3°C 87% 4.0 mph SSW6.4 kmh SSW 7.4 mph11.9 kmh 29.79 in1008.8 mb 0.00 in0.0 mm 0.00 in0.0 mm 0.03 in0.8 mm
11:12 AM 60.1°F15.6°C 56.1°F13.4°C 87% 3.6 mph WSW5.8 kmh WSW 8.5 mph13.7 kmh 29.79 in1008.8 mb 0.00 in0.0 mm 0.00 in0.0 mm 0.03 in0.8 mm
11:17 AM 60.1°F15.6°C 56.1°F13.4°C 87% 2.2 mph SW3.5 kmh SW 8.5 mph13.7 kmh 29.79 in1008.8 mb 0.00 in0.0 mm 0.00 in0.0 mm 0.03 in0.8 mm
11:22 AM 60.3°F15.7°C 56.3°F13.5°C 87% 2.9 mph WSW4.7 kmh WSW 7.4 mph11.9 kmh 29.78 in1008.5 mb 0.00 in0.0 mm 0.00 in0.0 mm 0.03 in0.8 mm
11:27 AM 60.3°F15.7°C 56.1°F13.4°C 86% 2.0 mph WSW3.2 kmh WSW 6.3 mph10.1 kmh 29.78 in1008.5 mb 0.00 in0.0 mm 0.00 in0.0 mm 0.03 in0.8 mm
11:32 AM 60.3°F15.7°C 56.1°F13.4°C 86% 2.5 mph W4.0 kmh W 6.3 mph10.1 kmh 29.78 in1008.5 mb 0.00 in0.0 mm 0.00 in0.0 mm 0.03 in0.8 mm
11:37 AM 60.4°F15.8°C 56.3°F13.5°C 86% 2.7 mph NW4.3 kmh NW 5.4 mph8.7 kmh 29.78 in1008.5 mb 0.00 in0.0 mm 0.00 in0.0 mm 0.03 in0.8 mm
11:42 AM 59.9°F15.5°C 55.8°F13.2°C 86% 2.2 mph NNW3.5 kmh NNW 5.4 mph8.7 kmh 29.78 in1008.5 mb 0.00 in0.0 mm 0.00 in0.0 mm 0.03 in0.8 mm
11:47 AM 59.7°F15.4°C 55.8°F13.2°C 87% 0.2 mph WNW0.3 kmh WNW 4.3 mph6.9 kmh 29.78 in1008.5 mb 0.00 in0.0 mm 0.00 in0.0 mm 0.03 in0.8 mm
11:52 AM 59.5°F15.3°C 55.6°F13.1°C 87% 3.1 mph NW5.0 kmh NW 4.3 mph6.9 kmh 29.78 in1008.5 mb 0.00 in0.0 mm 0.00 in0.0 mm 0.03 in0.8 mm
11:57 AM 59.7°F15.4°C 56.1°F13.4°C 88% 1.1 mph NW1.8 kmh NW 5.4 mph8.7 kmh 29.78 in1008.5 mb 0.00 in0.0 mm 0.00 in0.0 mm 0.03 in0.8 mm
12:02 PM 59.7°F15.4°C 55.8°F13.2°C 87% 2.5 mph N4.0 kmh N 7.4 mph11.9 kmh 29.78 in1008.5 mb 0.00 in0.0 mm 0.00 in0.0 mm 0.03 in0.8 mm
12:07 PM 59.7°F15.4°C 55.8°F13.2°C 87% 2.9 mph NNW4.7 kmh NNW 5.4 mph8.7 kmh 29.78 in1008.5 mb 0.00 in0.0 mm 0.00 in0.0 mm 0.03 in0.8 mm
12:12 PM 59.9°F15.5°C 55.9°F13.3°C 87% 2.0 mph NW3.2 kmh NW 4.3 mph6.9 kmh 29.77 in1008.1 mb 0.00 in0.0 mm 0.00 in0.0 mm 0.03 in0.8 mm
12:17 PM 60.1°F15.6°C 56.1°F13.4°C 87% 0.2 mph NW0.3 kmh NW 3.1 mph5.0 kmh 29.77 in1008.1 mb 0.00 in0.0 mm 0.00 in0.0 mm 0.03 in0.8 mm
12:22 PM 60.3°F15.7°C 56.1°F13.4°C 86% 2.7 mph NW4.3 kmh NW 4.3 mph6.9 kmh 29.77 in1008.1 mb 0.00 in0.0 mm 0.00 in0.0 mm 0.03 in0.8 mm
12:27 PM 60.4°F15.8°C 56.5°F13.6°C 87% 0.2 mph WNW0.3 kmh WNW 3.1 mph5.0 kmh 29.77 in1008.1 mb 0.00 in0.0 mm 0.00 in0.0 mm 0.03 in0.8 mm
12:32 PM 60.6°F15.9°C 56.5°F13.6°C 86% 1.1 mph W1.8 kmh W 3.1 mph5.0 kmh 29.77 in1008.1 mb 0.00 in0.0 mm 0.00 in0.0 mm 0.03 in0.8 mm
12:37 PM 61.0°F16.1°C 56.5°F13.6°C 85% 0.4 mph W0.6 kmh W 3.1 mph5.0 kmh 29.77 in1008.1 mb 0.00 in0.0 mm 0.00 in0.0 mm 0.03 in0.8 mm
12:42 PM 61.5°F16.4°C 57.4°F14.1°C 86% 1.3 mph NW2.1 kmh NW 4.3 mph6.9 kmh 29.77 in1008.1 mb 0.00 in0.0 mm 0.00 in0.0 mm 0.03 in0.8 mm
12:47 PM 61.9°F16.6°C 57.0°F13.9°C 84% 2.2 mph NW3.5 kmh NW 5.4 mph8.7 kmh 29.77 in1008.1 mb 0.00 in0.0 mm 0.00 in0.0 mm 0.03 in0.8 mm
12:52 PM 61.7°F16.5°C 56.8°F13.8°C 84% 0.2 mph W0.3 kmh W 5.4 mph8.7 kmh 29.77 in1008.1 mb 0.00 in0.0 mm 0.00 in0.0 mm 0.03 in0.8 mm
12:57 PM 61.7°F16.5°C 56.5°F13.6°C 83% 1.1 mph NW1.8 kmh NW 3.1 mph5.0 kmh 29.76 in1007.8 mb 0.00 in0.0 mm 0.00 in0.0 mm 0.03 in0.8 mm
01:02 PM 61.5°F16.4°C 56.3°F13.5°C 83% 2.0 mph WNW3.2 kmh WNW 4.3 mph6.9 kmh 29.76 in1007.8 mb 0.00 in0.0 mm 0.00 in0.0 mm 0.03 in0.8 mm
01:07 PM 61.7°F16.5°C 56.5°F13.6°C 83% 2.0 mph SW3.2 kmh SW 4.3 mph6.9 kmh 29.76 in1007.8 mb 0.00 in0.0 mm 0.00 in0.0 mm 0.03 in0.8 mm
01:12 PM 62.1°F16.7°C 55.4°F13.0°C 79% 3.6 mph SW5.8 kmh SW 7.4 mph11.9 kmh 29.76 in1007.8 mb 0.00 in0.0 mm 0.00 in0.0 mm 0.03 in0.8 mm
01:17 PM 62.2°F16.8°C 55.2°F12.9°C 78% 2.0 mph WSW3.2 kmh WSW 6.3 mph10.1 kmh 29.76 in1007.8 mb 0.00 in0.0 mm 0.00 in0.0 mm 0.03 in0.8 mm
01:22 PM 62.6°F17.0°C 55.2°F12.9°C 77% 1.8 mph SSW2.9 kmh SSW 8.5 mph13.7 kmh 29.76 in1007.8 mb 0.00 in0.0 mm 0.00 in0.0 mm 0.03 in0.8 mm
01:27 PM 62.8°F17.1°C 54.7°F12.6°C 75% 4.7 mph SW7.6 kmh SW 8.5 mph13.7 kmh 29.76 in1007.8 mb 0.00 in0.0 mm 0.00 in0.0 mm 0.03 in0.8 mm
01:32 PM 63.0°F17.2°C 54.9°F12.7°C 75% 3.1 mph WSW5.0 kmh WSW 9.6 mph15.4 kmh 29.76 in1007.8 mb 0.00 in0.0 mm 0.00 in0.0 mm 0.03 in0.8 mm
01:37 PM 62.8°F17.1°C 54.3°F12.4°C 74% 5.1 mph SW8.2 kmh SW 9.6 mph15.4 kmh 29.76 in1007.8 mb 0.00 in0.0 mm 0.00 in0.0 mm 0.03 in0.8 mm
01:42 PM 62.6°F17.0°C 54.1°F12.3°C 74% 6.0 mph SSW9.7 kmh SSW 9.6 mph15.4 kmh 29.76 in1007.8 mb 0.00 in0.0 mm 0.00 in0.0 mm 0.03 in0.8 mm
01:47 PM 62.6°F17.0°C 53.8°F12.1°C 73% 5.1 mph SSW8.2 kmh SSW 8.5 mph13.7 kmh 29.75 in1007.5 mb 0.00 in0.0 mm 0.00 in0.0 mm 0.03 in0.8 mm
01:52 PM 62.8°F17.1°C 54.3°F12.4°C 74% 4.0 mph SW6.4 kmh SW 7.4 mph11.9 kmh 29.75 in1007.5 mb 0.00 in0.0 mm 0.00 in0.0 mm 0.03 in0.8 mm
01:57 PM 62.8°F17.1°C 54.3°F12.4°C 74% 5.1 mph SW8.2 kmh SW 9.6 mph15.4 kmh 29.75 in1007.5 mb 0.00 in0.0 mm 0.00 in0.0 mm 0.03 in0.8 mm
02:02 PM 62.8°F17.1°C 54.7°F12.6°C 75% 4.7 mph S7.6 kmh S 8.5 mph13.7 kmh 29.75 in1007.5 mb 0.00 in0.0 mm 0.00 in0.0 mm 0.03 in0.8 mm
02:07 PM 63.0°F17.2°C 54.5°F12.5°C 74% 3.8 mph WSW6.1 kmh WSW 7.4 mph11.9 kmh 29.75 in1007.5 mb 0.00 in0.0 mm 0.00 in0.0 mm 0.03 in0.8 mm
02:12 PM 62.8°F17.1°C 54.0°F12.2°C 73% 4.9 mph SW7.9 kmh SW 8.5 mph13.7 kmh 29.75 in1007.5 mb 0.00 in0.0 mm 0.00 in0.0 mm 0.03 in0.8 mm
02:17 PM 62.8°F17.1°C 54.0°F12.2°C 73% 2.7 mph WSW4.3 kmh WSW 6.3 mph10.1 kmh 29.74 in1007.1 mb 0.00 in0.0 mm 0.00 in0.0 mm 0.03 in0.8 mm
02:22 PM 63.0°F17.2°C 54.1°F12.3°C 73% 3.8 mph SSW6.1 kmh SSW 9.6 mph15.4 kmh 29.74 in1007.1 mb 0.00 in0.0 mm 0.00 in0.0 mm 0.03 in0.8 mm
02:27 PM 63.0°F17.2°C 53.8°F12.1°C 72% 3.6 mph SW5.8 kmh SW 8.5 mph13.7 kmh 29.74 in1007.1 mb 0.00 in0.0 mm 0.00 in0.0 mm 0.03 in0.8 mm
02:32 PM 63.0°F17.2°C 54.5°F12.5°C 74% 2.7 mph SW4.3 kmh SW 6.3 mph10.1 kmh 29.73 in1006.8 mb 0.00 in0.0 mm 0.00 in0.0 mm 0.03 in0.8 mm
02:37 PM 63.1°F17.3°C 54.3°F12.4°C 73% 0.7 mph SW1.1 kmh SW 7.4 mph11.9 kmh 29.73 in1006.8 mb 0.00 in0.0 mm 0.00 in0.0 mm 0.03 in0.8 mm
02:42 PM 63.7°F17.6°C 54.9°F12.7°C 73% 1.1 mph SW1.8 kmh SW 3.1 mph5.0 kmh 29.73 in1006.8 mb 0.00 in0.0 mm 0.00 in0.0 mm 0.03 in0.8 mm
02:47 PM 63.5°F17.5°C 54.3°F12.4°C 72% 2.9 mph WSW4.7 kmh WSW 6.3 mph10.1 kmh 29.73 in1006.8 mb 0.00 in0.0 mm 0.00 in0.0 mm 0.03 in0.8 mm
02:52 PM 63.3°F17.4°C 54.5°F12.5°C 73% 4.0 mph SW6.4 kmh SW 6.3 mph10.1 kmh 29.73 in1006.8 mb 0.00 in0.0 mm 0.00 in0.0 mm 0.03 in0.8 mm
02:57 PM 63.1°F17.3°C 54.3°F12.4°C 73% 1.1 mph SSE1.8 kmh SSE 7.4 mph11.9 kmh 29.73 in1006.8 mb 0.00 in0.0 mm 0.00 in0.0 mm 0.03 in0.8 mm
03:02 PM 63.1°F17.3°C 54.7°F12.6°C 74% 5.4 mph SW8.7 kmh SW 8.5 mph13.7 kmh 29.73 in1006.8 mb 0.00 in0.0 mm 0.00 in0.0 mm 0.03 in0.8 mm
03:07 PM 63.0°F17.2°C 54.9°F12.7°C 75% 3.6 mph S5.8 kmh S 8.5 mph13.7 kmh 29.72 in1006.4 mb 0.00 in0.0 mm 0.00 in0.0 mm 0.03 in0.8 mm
03:12 PM 62.8°F17.1°C 54.7°F12.6°C 75% 4.0 mph SSE6.4 kmh SSE 7.4 mph11.9 kmh 29.72 in1006.4 mb 0.00 in0.0 mm 0.00 in0.0 mm 0.03 in0.8 mm
03:17 PM 62.8°F17.1°C 54.7°F12.6°C 75% 3.4 mph SSW5.5 kmh SSW 7.4 mph11.9 kmh 29.72 in1006.4 mb 0.00 in0.0 mm 0.00 in0.0 mm 0.03 in0.8 mm
03:22 PM 62.6°F17.0°C 54.5°F12.5°C 75% 3.1 mph SW5.0 kmh SW 6.3 mph10.1 kmh 29.72 in1006.4 mb 0.00 in0.0 mm 0.00 in0.0 mm 0.03 in0.8 mm
03:27 PM 62.8°F17.1°C 54.7°F12.6°C 75% 2.9 mph SW4.7 kmh SW 6.3 mph10.1 kmh 29.72 in1006.4 mb 0.00 in0.0 mm 0.00 in0.0 mm 0.03 in0.8 mm
03:32 PM 62.6°F17.0°C 54.5°F12.5°C 75% 3.1 mph SW5.0 kmh SW 6.3 mph10.1 kmh 29.72 in1006.4 mb 0.00 in0.0 mm 0.00 in0.0 mm 0.03 in0.8 mm
03:37 PM 62.6°F17.0°C 54.5°F12.5°C 75% 1.3 mph SW2.1 kmh SW 4.3 mph6.9 kmh 29.72 in1006.4 mb 0.00 in0.0 mm 0.00 in0.0 mm 0.03 in0.8 mm
03:42 PM 62.6°F17.0°C 54.5°F12.5°C 75% 4.0 mph SW6.4 kmh SW 6.3 mph10.1 kmh 29.72 in1006.4 mb 0.00 in0.0 mm 0.00 in0.0 mm 0.03 in0.8 mm
03:47 PM 62.4°F16.9°C 54.3°F12.4°C 75% 2.9 mph SSW4.7 kmh SSW 5.4 mph8.7 kmh 29.72 in1006.4 mb 0.00 in0.0 mm 0.00 in0.0 mm 0.03 in0.8 mm
03:52 PM 62.2°F16.8°C 54.5°F12.5°C 76% 3.1 mph WSW5.0 kmh WSW 7.4 mph11.9 kmh 29.72 in1006.4 mb 0.00 in0.0 mm 0.00 in0.0 mm 0.03 in0.8 mm
03:57 PM 62.2°F16.8°C 54.9°F12.7°C 77% 2.0 mph S3.2 kmh S 6.3 mph10.1 kmh 29.71 in1006.1 mb 0.00 in0.0 mm 0.00 in0.0 mm 0.03 in0.8 mm
04:02 PM 62.4°F16.9°C 55.0°F12.8°C 77% 1.3 mph SW2.1 kmh SW 4.3 mph6.9 kmh 29.71 in1006.1 mb 0.00 in0.0 mm 0.00 in0.0 mm 0.03 in0.8 mm
04:07 PM 62.4°F16.9°C 55.0°F12.8°C 77% 3.1 mph SW5.0 kmh SW 6.3 mph10.1 kmh 29.71 in1006.1 mb 0.00 in0.0 mm 0.00 in0.0 mm 0.03 in0.8 mm
04:12 PM 62.4°F16.9°C 55.0°F12.8°C 77% 2.9 mph SW4.7 kmh SW 6.3 mph10.1 kmh 29.71 in1006.1 mb 0.00 in0.0 mm 0.00 in0.0 mm 0.03 in0.8 mm
04:17 PM 62.2°F16.8°C 54.9°F12.7°C 77% 4.0 mph SSW6.4 kmh SSW 8.5 mph13.7 kmh 29.71 in1006.1 mb 0.00 in0.0 mm 0.00 in0.0 mm 0.03 in0.8 mm
04:22 PM 62.1°F16.7°C 54.7°F12.6°C 77% 3.8 mph WSW6.1 kmh WSW 6.3 mph10.1 kmh 29.71 in1006.1 mb 0.00 in0.0 mm 0.00 in0.0 mm 0.03 in0.8 mm
04:27 PM 62.1°F16.7°C 54.7°F12.6°C 77% 5.1 mph SW8.2 kmh SW 7.4 mph11.9 kmh 29.71 in1006.1 mb 0.00 in0.0 mm 0.00 in0.0 mm 0.03 in0.8 mm
04:32 PM 61.9°F16.6°C 54.9°F12.7°C 78% 3.8 mph SW6.1 kmh SW 6.3 mph10.1 kmh 29.72 in1006.4 mb 0.00 in0.0 mm 0.00 in0.0 mm 0.03 in0.8 mm
04:37 PM 61.7°F16.5°C 54.9°F12.7°C 78% 3.1 mph SW5.0 kmh SW 7.4 mph11.9 kmh 29.72 in1006.4 mb 0.00 in0.0 mm 0.00 in0.0 mm 0.03 in0.8 mm
04:42 PM 61.5°F16.4°C 54.7°F12.6°C 78% 4.0 mph SSW6.4 kmh SSW 6.3 mph10.1 kmh 29.72 in1006.4 mb 0.00 in0.0 mm 0.00 in0.0 mm 0.03 in0.8 mm
04:47 PM 61.5°F16.4°C 54.7°F12.6°C 78% 2.9 mph SW4.7 kmh SW 6.3 mph10.1 kmh 29.72 in1006.4 mb 0.00 in0.0 mm 0.00 in0.0 mm 0.03 in0.8 mm
04:52 PM 61.3°F16.3°C 54.5°F12.5°C 78% 4.7 mph S7.6 kmh S 7.4 mph11.9 kmh 29.72 in1006.4 mb 0.00 in0.0 mm 0.00 in0.0 mm 0.03 in0.8 mm
04:57 PM 61.2°F16.2°C 54.3°F12.4°C 78% 4.5 mph SSW7.2 kmh SSW 7.4 mph11.9 kmh 29.72 in1006.4 mb 0.00 in0.0 mm 0.00 in0.0 mm 0.03 in0.8 mm
05:02 PM 61.2°F16.2°C 54.3°F12.4°C 78% 4.0 mph WSW6.4 kmh WSW 6.3 mph10.1 kmh 29.72 in1006.4 mb 0.00 in0.0 mm 0.00 in0.0 mm 0.03 in0.8 mm
05:07 PM 61.2°F16.2°C 54.3°F12.4°C 78% 4.5 mph S7.2 kmh S 9.6 mph15.4 kmh 29.72 in1006.4 mb 0.00 in0.0 mm 0.00 in0.0 mm 0.03 in0.8 mm
05:12 PM 61.0°F16.1°C 54.1°F12.3°C 78% 4.5 mph SW7.2 kmh SW 9.6 mph15.4 kmh 29.72 in1006.4 mb 0.00 in0.0 mm 0.00 in0.0 mm 0.03 in0.8 mm
05:17 PM 60.8°F16.0°C 54.0°F12.2°C 78% 4.0 mph SSW6.4 kmh SSW 8.5 mph13.7 kmh 29.72 in1006.4 mb 0.00 in0.0 mm 0.00 in0.0 mm 0.03 in0.8 mm
05:22 PM 60.6°F15.9°C 54.1°F12.3°C 79% 5.4 mph SW8.7 kmh SW 8.5 mph13.7 kmh 29.72 in1006.4 mb 0.00 in0.0 mm 0.00 in0.0 mm 0.03 in0.8 mm
05:27 PM 60.4°F15.8°C 54.0°F12.2°C 79% 3.8 mph SW6.1 kmh SW 8.5 mph13.7 kmh 29.72 in1006.4 mb 0.00 in0.0 mm 0.00 in0.0 mm 0.03 in0.8 mm
05:32 PM 60.4°F15.8°C 54.0°F12.2°C 79% 3.8 mph SSE6.1 kmh SSE 6.3 mph10.1 kmh 29.72 in1006.4 mb 0.00 in0.0 mm 0.00 in0.0 mm 0.03 in0.8 mm
05:37 PM 60.4°F15.8°C 54.0°F12.2°C 79% 4.5 mph SW7.2 kmh SW 6.3 mph10.1 kmh 29.72 in1006.4 mb 0.00 in0.0 mm 0.00 in0.0 mm 0.03 in0.8 mm
05:42 PM 60.3°F15.7°C 53.8°F12.1°C 79% 1.6 mph W2.6 kmh W 6.3 mph10.1 kmh 29.72 in1006.4 mb 0.00 in0.0 mm 0.00 in0.0 mm 0.03 in0.8 mm
05:47 PM 60.3°F15.7°C 53.8°F12.1°C 79% 1.3 mph W2.1 kmh W 4.3 mph6.9 kmh 29.72 in1006.4 mb 0.00 in0.0 mm 0.00 in0.0 mm 0.03 in0.8 mm
05:52 PM 60.3°F15.7°C 53.8°F12.1°C 79% 3.8 mph WSW6.1 kmh WSW 7.4 mph11.9 kmh 29.72 in1006.4 mb 0.00 in0.0 mm 0.00 in0.0 mm 0.03 in0.8 mm
05:57 PM 60.1°F15.6°C 54.0°F12.2°C 80% 3.4 mph S5.5 kmh S 6.3 mph10.1 kmh 29.72 in1006.4 mb 0.00 in0.0 mm 0.00 in0.0 mm 0.03 in0.8 mm
06:02 PM 60.1°F15.6°C 54.0°F12.2°C 80% 2.5 mph S4.0 kmh S 6.3 mph10.1 kmh 29.72 in1006.4 mb 0.00 in0.0 mm 0.00 in0.0 mm 0.03 in0.8 mm
06:07 PM 60.1°F15.6°C 54.0°F12.2°C 80% 2.0 mph SW3.2 kmh SW 5.4 mph8.7 kmh 29.72 in1006.4 mb 0.00 in0.0 mm 0.00 in0.0 mm 0.03 in0.8 mm
06:12 PM 60.1°F15.6°C 54.0°F12.2°C 80% 4.5 mph SSW7.2 kmh SSW 8.5 mph13.7 kmh 29.72 in1006.4 mb 0.00 in0.0 mm 0.00 in0.0 mm 0.03 in0.8 mm
06:17 PM 60.1°F15.6°C 54.3°F12.4°C 81% 3.8 mph SW6.1 kmh SW 6.3 mph10.1 kmh 29.72 in1006.4 mb 0.00 in0.0 mm 0.00 in0.0 mm 0.03 in0.8 mm
06:22 PM 60.1°F15.6°C 54.3°F12.4°C 81% 3.6 mph SSE5.8 kmh SSE 6.3 mph10.1 kmh 29.73 in1006.8 mb 0.00 in0.0 mm 0.00 in0.0 mm 0.03 in0.8 mm
06:27 PM 60.1°F15.6°C 54.3°F12.4°C 81% 1.8 mph WSW2.9 kmh WSW 4.3 mph6.9 kmh 29.73 in1006.8 mb 0.00 in0.0 mm 0.00 in0.0 mm 0.03 in0.8 mm
06:32 PM 60.1°F15.6°C 54.5°F12.5°C 82% 3.1 mph SW5.0 kmh SW 6.3 mph10.1 kmh 29.73 in1006.8 mb 0.00 in0.0 mm 0.00 in0.0 mm 0.03 in0.8 mm
06:37 PM 60.1°F15.6°C 54.9°F12.7°C 83% 2.2 mph SW3.5 kmh SW 7.4 mph11.9 kmh 29.73 in1006.8 mb 0.00 in0.0 mm 0.00 in0.0 mm 0.03 in0.8 mm
06:42 PM 59.9°F15.5°C 54.7°F12.6°C 83% 2.2 mph SW3.5 kmh SW 6.3 mph10.1 kmh 29.74 in1007.1 mb 0.00 in0.0 mm 0.00 in0.0 mm 0.03 in0.8 mm
06:47 PM 59.9°F15.5°C 54.7°F12.6°C 83% 2.9 mph WSW4.7 kmh WSW 5.4 mph8.7 kmh 29.74 in1007.1 mb 0.00 in0.0 mm 0.00 in0.0 mm 0.03 in0.8 mm
06:52 PM 59.7°F15.4°C 54.5°F12.5°C 83% 1.6 mph SW2.6 kmh SW 6.3 mph10.1 kmh 29.74 in1007.1 mb 0.00 in0.0 mm 0.00 in0.0 mm 0.03 in0.8 mm
06:57 PM 59.7°F15.4°C 54.5°F12.5°C 83% 2.9 mph SSW4.7 kmh SSW 6.3 mph10.1 kmh 29.74 in1007.1 mb 0.00 in0.0 mm 0.00 in0.0 mm 0.03 in0.8 mm
07:02 PM 59.7°F15.4°C 54.5°F12.5°C 83% 1.8 mph SW2.9 kmh SW 6.3 mph10.1 kmh 29.74 in1007.1 mb 0.00 in0.0 mm 0.00 in0.0 mm 0.03 in0.8 mm
07:07 PM 59.7°F15.4°C 54.1°F12.3°C 82% 1.6 mph SW2.6 kmh SW 4.3 mph6.9 kmh 29.75 in1007.5 mb 0.00 in0.0 mm 0.00 in0.0 mm 0.03 in0.8 mm
07:12 PM 59.7°F15.4°C 54.1°F12.3°C 82% 2.2 mph WSW3.5 kmh WSW 6.3 mph10.1 kmh 29.75 in1007.5 mb 0.00 in0.0 mm 0.00 in0.0 mm 0.03 in0.8 mm
07:17 PM 59.7°F15.4°C 54.1°F12.3°C 82% 2.9 mph SW4.7 kmh SW 7.4 mph11.9 kmh 29.75 in1007.5 mb 0.00 in0.0 mm 0.00 in0.0 mm 0.03 in0.8 mm
07:22 PM 59.7°F15.4°C 54.1°F12.3°C 82% 3.4 mph SW5.5 kmh SW 7.4 mph11.9 kmh 29.75 in1007.5 mb 0.00 in0.0 mm 0.00 in0.0 mm 0.03 in0.8 mm
07:27 PM 59.7°F15.4°C 54.1°F12.3°C 82% 2.2 mph SW3.5 kmh SW 5.4 mph8.7 kmh 29.75 in1007.5 mb 0.00 in0.0 mm 0.00 in0.0 mm 0.03 in0.8 mm
07:32 PM 59.7°F15.4°C 54.1°F12.3°C 82% 3.8 mph S6.1 kmh S 7.4 mph11.9 kmh 29.75 in1007.5 mb 0.00 in0.0 mm 0.00 in0.0 mm 0.03 in0.8 mm
07:37 PM 59.7°F15.4°C 54.1°F12.3°C 82% 3.6 mph SW5.8 kmh SW 7.4 mph11.9 kmh 29.75 in1007.5 mb 0.00 in0.0 mm 0.00 in0.0 mm 0.03 in0.8 mm
07:42 PM 59.7°F15.4°C 54.1°F12.3°C 82% 3.4 mph SSW5.5 kmh SSW 7.4 mph11.9 kmh 29.75 in1007.5 mb 0.00 in0.0 mm 0.00 in0.0 mm 0.03 in0.8 mm
07:47 PM 59.5°F15.3°C 54.0°F12.2°C 82% 2.0 mph SSW3.2 kmh SSW 6.3 mph10.1 kmh 29.75 in1007.5 mb 0.00 in0.0 mm 0.00 in0.0 mm 0.03 in0.8 mm
07:52 PM 59.5°F15.3°C 54.0°F12.2°C 82% 1.6 mph SW2.6 kmh SW 5.4 mph8.7 kmh 29.76 in1007.8 mb 0.00 in0.0 mm 0.00 in0.0 mm 0.03 in0.8 mm
07:57 PM 59.5°F15.3°C 54.0°F12.2°C 82% 4.3 mph SW6.9 kmh SW 7.4 mph11.9 kmh 29.76 in1007.8 mb 0.00 in0.0 mm 0.00 in0.0 mm 0.03 in0.8 mm
08:02 PM 59.5°F15.3°C 54.0°F12.2°C 82% 2.5 mph SW4.0 kmh SW 6.3 mph10.1 kmh 29.76 in1007.8 mb 0.00 in0.0 mm 0.00 in0.0 mm 0.03 in0.8 mm
08:07 PM 59.5°F15.3°C 54.0°F12.2°C 82% 3.1 mph SW5.0 kmh SW 6.3 mph10.1 kmh 29.76 in1007.8 mb 0.00 in0.0 mm 0.00 in0.0 mm 0.03 in0.8 mm
08:12 PM 59.5°F15.3°C 54.0°F12.2°C 82% 4.0 mph SW6.4 kmh SW 7.4 mph11.9 kmh 29.76 in1007.8 mb 0.00 in0.0 mm 0.00 in0.0 mm 0.03 in0.8 mm
08:17 PM 59.5°F15.3°C 54.0°F12.2°C 82% 2.7 mph SW4.3 kmh SW 7.4 mph11.9 kmh 29.77 in1008.1 mb 0.00 in0.0 mm 0.00 in0.0 mm 0.03 in0.8 mm
08:22 PM 59.5°F15.3°C 54.3°F12.4°C 83% 1.3 mph SSW2.1 kmh SSW 4.3 mph6.9 kmh 29.77 in1008.1 mb 0.00 in0.0 mm 0.00 in0.0 mm 0.03 in0.8 mm
08:27 PM 59.5°F15.3°C 54.3°F12.4°C 83% 2.5 mph SW4.0 kmh SW 4.3 mph6.9 kmh 29.77 in1008.1 mb 0.00 in0.0 mm 0.00 in0.0 mm 0.03 in0.8 mm
08:32 PM 59.5°F15.3°C 54.3°F12.4°C 83% 0.9 mph S1.4 kmh S 3.1 mph5.0 kmh 29.77 in1008.1 mb 0.00 in0.0 mm 0.00 in0.0 mm 0.03 in0.8 mm
08:37 PM 59.5°F15.3°C 54.3°F12.4°C 83% 1.3 mph SW2.1 kmh SW 4.3 mph6.9 kmh 29.77 in1008.1 mb 0.00 in0.0 mm 0.00 in0.0 mm 0.03 in0.8 mm
08:42 PM 59.5°F15.3°C 54.3°F12.4°C 83% 0.7 mph SSW1.1 kmh SSW 5.4 mph8.7 kmh 29.77 in1008.1 mb 0.00 in0.0 mm 0.00 in0.0 mm 0.03 in0.8 mm
08:47 PM 59.5°F15.3°C 54.3°F12.4°C 83% 1.1 mph SW1.8 kmh SW 3.1 mph5.0 kmh 29.77 in1008.1 mb 0.00 in0.0 mm 0.00 in0.0 mm 0.03 in0.8 mm
08:52 PM 59.5°F15.3°C 54.3°F12.4°C 83% 1.8 mph SW2.9 kmh SW 4.3 mph6.9 kmh 29.78 in1008.5 mb 0.00 in0.0 mm 0.00 in0.0 mm 0.03 in0.8 mm
08:57 PM 59.5°F15.3°C 54.3°F12.4°C 83% 2.2 mph SSW3.5 kmh SSW 4.3 mph6.9 kmh 29.78 in1008.5 mb 0.00 in0.0 mm 0.00 in0.0 mm 0.03 in0.8 mm
09:02 PM 59.5°F15.3°C 54.3°F12.4°C 83% 1.1 mph S1.8 kmh S 4.3 mph6.9 kmh 29.78 in1008.5 mb 0.00 in0.0 mm 0.00 in0.0 mm 0.03 in0.8 mm
09:07 PM 59.5°F15.3°C 54.3°F12.4°C 83% 1.1 mph SW1.8 kmh SW 2.0 mph3.2 kmh 29.78 in1008.5 mb 0.00 in0.0 mm 0.00 in0.0 mm 0.03 in0.8 mm
09:12 PM 59.5°F15.3°C 54.3°F12.4°C 83% 0.7 mph SW1.1 kmh SW 4.3 mph6.9 kmh 29.78 in1008.5 mb 0.00 in0.0 mm 0.00 in0.0 mm 0.03 in0.8 mm
09:17 PM 59.5°F15.3°C 54.3°F12.4°C 83% 0.9 mph WSW1.4 kmh WSW 2.0 mph3.2 kmh 29.78 in1008.5 mb 0.00 in0.0 mm 0.00 in0.0 mm 0.03 in0.8 mm
09:22 PM 59.5°F15.3°C 54.3°F12.4°C 83% 1.1 mph SW1.8 kmh SW 2.0 mph3.2 kmh 29.78 in1008.5 mb 0.00 in0.0 mm 0.00 in0.0 mm 0.03 in0.8 mm
09:27 PM 59.4°F15.2°C 54.1°F12.3°C 83% 0.2 mph SW0.3 kmh SW 3.1 mph5.0 kmh 29.78 in1008.5 mb 0.00 in0.0 mm 0.00 in0.0 mm 0.03 in0.8 mm
09:32 PM 59.4°F15.2°C 54.5°F12.5°C 84% 0.2 mph SSE0.3 kmh SSE 2.0 mph3.2 kmh 29.78 in1008.5 mb 0.00 in0.0 mm 0.00 in0.0 mm 0.03 in0.8 mm
09:37 PM 59.2°F15.1°C 54.3°F12.4°C 84% 1.6 mph S2.6 kmh S 3.1 mph5.0 kmh 29.78 in1008.5 mb 0.00 in0.0 mm 0.00 in0.0 mm 0.03 in0.8 mm
09:42 PM 59.2°F15.1°C 54.3°F12.4°C 84% Calm Calm 2.0 mph3.2 kmh 29.78 in1008.5 mb 0.00 in0.0 mm 0.00 in0.0 mm 0.03 in0.8 mm
09:47 PM 59.2°F15.1°C 54.3°F12.4°C 84% Calm Calm 2.0 mph3.2 kmh 29.78 in1008.5 mb 0.00 in0.0 mm 0.00 in0.0 mm 0.03 in0.8 mm
09:52 PM 58.8°F14.9°C 54.0°F12.2°C 84% 0.4 mph S0.6 kmh S 1.1 mph1.8 kmh 29.78 in1008.5 mb 0.00 in0.0 mm 0.00 in0.0 mm 0.03 in0.8 mm
09:57 PM 58.8°F14.9°C 54.0°F12.2°C 84% 1.3 mph SSE2.1 kmh SSE 5.4 mph8.7 kmh 29.78 in1008.5 mb 0.00 in0.0 mm 0.00 in0.0 mm 0.03 in0.8 mm
10:02 PM 58.8°F14.9°C 54.0°F12.2°C 84% 0.4 mph S0.6 kmh S 2.0 mph3.2 kmh 29.78 in1008.5 mb 0.00 in0.0 mm 0.00 in0.0 mm 0.03 in0.8 mm
10:07 PM 58.8°F14.9°C 54.0°F12.2°C 84% 0.9 mph SE1.4 kmh SE 3.1 mph5.0 kmh 29.77 in1008.1 mb 0.00 in0.0 mm 0.00 in0.0 mm 0.03 in0.8 mm
10:12 PM 59.0°F15.0°C 54.5°F12.5°C 85% 1.8 mph S2.9 kmh S 4.3 mph6.9 kmh 29.77 in1008.1 mb 0.00 in0.0 mm 0.00 in0.0 mm 0.03 in0.8 mm
10:17 PM 59.2°F15.1°C 55.0°F12.8°C 86% 2.7 mph SW4.3 kmh SW 5.4 mph8.7 kmh 29.78 in1008.5 mb 0.00 in0.0 mm 0.00 in0.0 mm 0.03 in0.8 mm
10:22 PM 59.2°F15.1°C 55.0°F12.8°C 86% 2.9 mph SW4.7 kmh SW 6.3 mph10.1 kmh 29.78 in1008.5 mb 0.00 in0.0 mm 0.00 in0.0 mm 0.03 in0.8 mm
10:27 PM 59.0°F15.0°C 54.9°F12.7°C 86% 1.3 mph SW2.1 kmh SW 6.3 mph10.1 kmh 29.78 in1008.5 mb 0.00 in0.0 mm 0.00 in0.0 mm 0.03 in0.8 mm
10:32 PM 58.8°F14.9°C 54.7°F12.6°C 86% 0.9 mph SW1.4 kmh SW 2.0 mph3.2 kmh 29.77 in1008.1 mb 0.00 in0.0 mm 0.00 in0.0 mm 0.03 in0.8 mm
10:37 PM 58.8°F14.9°C 54.7°F12.6°C 86% 0.4 mph SE0.6 kmh SE 2.0 mph3.2 kmh 29.77 in1008.1 mb 0.00 in0.0 mm 0.00 in0.0 mm 0.03 in0.8 mm
10:42 PM 58.8°F14.9°C 54.7°F12.6°C 86% 0.4 mph SE0.6 kmh SE 2.0 mph3.2 kmh 29.77 in1008.1 mb 0.00 in0.0 mm 0.00 in0.0 mm 0.03 in0.8 mm
10:47 PM 58.8°F14.9°C 54.7°F12.6°C 86% 0.7 mph SE1.1 kmh SE 3.1 mph5.0 kmh 29.78 in1008.5 mb 0.00 in0.0 mm 0.00 in0.0 mm 0.03 in0.8 mm
10:52 PM 58.8°F14.9°C 54.7°F12.6°C 86% 0.2 mph SW0.3 kmh SW 2.0 mph3.2 kmh 29.78 in1008.5 mb 0.00 in0.0 mm 0.00 in0.0 mm 0.03 in0.8 mm
10:57 PM 58.8°F14.9°C 54.7°F12.6°C 86% 0.7 mph SW1.1 kmh SW 2.0 mph3.2 kmh 29.78 in1008.5 mb 0.00 in0.0 mm 0.00 in0.0 mm 0.03 in0.8 mm
11:02 PM 58.8°F14.9°C 54.7°F12.6°C 86% Calm Calm 1.1 mph1.8 kmh 29.78 in1008.5 mb 0.00 in0.0 mm 0.00 in0.0 mm 0.03 in0.8 mm
11:07 PM 58.8°F14.9°C 54.7°F12.6°C 86% Calm Calm 1.1 mph1.8 kmh 29.78 in1008.5 mb 0.00 in0.0 mm 0.00 in0.0 mm 0.03 in0.8 mm
11:12 PM 58.6°F14.8°C 54.5°F12.5°C 86% 0.4 mph SE0.6 kmh SE 2.0 mph3.2 kmh 29.78 in1008.5 mb 0.00 in0.0 mm 0.00 in0.0 mm 0.03 in0.8 mm
11:17 PM 58.6°F14.8°C 54.1°F12.3°C 85% Calm Calm 1.1 mph1.8 kmh 29.78 in1008.5 mb 0.00 in0.0 mm 0.00 in0.0 mm 0.03 in0.8 mm
11:22 PM 58.6°F14.8°C 54.5°F12.5°C 86% 0.2 mph SE0.3 kmh SE 1.1 mph1.8 kmh 29.78 in1008.5 mb 0.00 in0.0 mm 0.00 in0.0 mm 0.03 in0.8 mm
11:27 PM 58.6°F14.8°C 54.5°F12.5°C 86% Calm Calm 1.1 mph1.8 kmh 29.78 in1008.5 mb 0.00 in0.0 mm 0.00 in0.0 mm 0.03 in0.8 mm
11:32 PM 58.6°F14.8°C 54.5°F12.5°C 86% Calm Calm -- 29.77 in1008.1 mb 0.00 in0.0 mm 0.00 in0.0 mm 0.03 in0.8 mm
11:37 PM 58.6°F14.8°C 54.5°F12.5°C 86% Calm Calm -- 29.78 in1008.5 mb 0.00 in0.0 mm 0.00 in0.0 mm 0.03 in0.8 mm
11:42 PM 58.6°F14.8°C 54.5°F12.5°C 86% Calm Calm -- 29.77 in1008.1 mb 0.00 in0.0 mm 0.00 in0.0 mm 0.03 in0.8 mm
11:47 PM 58.6°F14.8°C 54.5°F12.5°C 86% 0.2 mph SE0.3 kmh SE 1.1 mph1.8 kmh 29.77 in1008.1 mb 0.00 in0.0 mm 0.00 in0.0 mm 0.03 in0.8 mm
11:52 PM 58.6°F14.8°C 54.5°F12.5°C 86% 0.2 mph SE0.3 kmh SE 2.0 mph3.2 kmh 29.77 in1008.1 mb 0.00 in0.0 mm 0.00 in0.0 mm 0.03 in0.8 mm
11:57 PM 58.6°F14.8°C 54.5°F12.5°C 86% 2.0 mph SW3.2 kmh SW 5.4 mph8.7 kmh 29.77 in1008.1 mb 0.00 in0.0 mm 0.00 in0.0 mm 0.03 in0.8 mm